Terminal Aerodrome Forecast
Issued by NWS Wilmington, OH

Current Version | Previous Version | Text Only | Print | Product List | Glossary On
Versions: 1 2 3 4 5 6 7 8 9 10 11 12 13 14 15 16 17
913
FTUS41 KILN 302351
TAFDAY
TAF
KDAY 302351Z 3100/3124 19010KT P6SM VCTS SCT040CB BKN080
     FM310200 18007KT 5SM -SHRA BR VCTS OVC040CB
      TEMPO 3102/3106 3SM TSRA BR OVC025CB
     FM310600 18007KT 3SM -SHRA BR OVC025
     FM311000 19007KT P6SM OVC016
     FM311800 25010KT P6SM OVC016=

USA.gov is the U.S. government's official web portal to all federal, state and local government web resources and services.